JBA23 KGPI-KSFO
Flight info
| Callsign | JBA23 |
|---|---|
| Flight time | 1h 56m |
| Altitude | 43000 |
| Route | RIDDG2 MLP REO FMG FMG MOD9 |
| Aircraft | C750/M-SBDE3FGHRWXY/S |
Departure
| Time | 2026-04-22 01:20 |
|---|---|
| Airport | Glacier Park International Airport (KGPI) |
Arrival
| Time | 2026-04-22 03:16 |
|---|---|
| Airport | San Francisco International Airport (KSFO) |
| Time | Latitude | Longitude | Altitude | Speed | Heading |
|---|---|---|---|---|---|
| 2026-04-22 00:48 | 48.31003 | -114.25166 | 2974 ft | 0 kts | 272° |
| 2026-04-22 01:14 | 48.31006 | -114.25198 | 2974 ft | 4 kts | 286° |
| 2026-04-22 01:14 | 48.31022 | -114.25239 | 2974 ft | 7 kts | 301° |
| 2026-04-22 01:14 | 48.31029 | -114.25334 | 2970 ft | 10 kts | 252° |
| 2026-04-22 01:15 | 48.30974 | -114.25416 | 2968 ft | 12 kts | 214° |
| 2026-04-22 01:15 | 48.30900 | -114.25493 | 2966 ft | 14 kts | 215° |
| 2026-04-22 01:15 | 48.30814 | -114.25582 | 2961 ft | 16 kts | 214° |
| 2026-04-22 01:15 | 48.30717 | -114.25684 | 2957 ft | 19 kts | 215° |
| 2026-04-22 01:16 | 48.30611 | -114.25793 | 2966 ft | 18 kts | 214° |
| 2026-04-22 01:16 | 48.30504 | -114.25906 | 2967 ft | 19 kts | 214° |
| 2026-04-22 01:16 | 48.30394 | -114.26019 | 2968 ft | 20 kts | 217° |
| 2026-04-22 01:16 | 48.30273 | -114.26146 | 2960 ft | 22 kts | 215° |
| 2026-04-22 01:17 | 48.30141 | -114.26285 | 2958 ft | 25 kts | 214° |
| 2026-04-22 01:17 | 48.30007 | -114.26425 | 2960 ft | 22 kts | 215° |
| 2026-04-22 01:17 | 48.29888 | -114.26550 | 2968 ft | 19 kts | 214° |
| 2026-04-22 01:17 | 48.29837 | -114.26622 | 2970 ft | 6 kts | 258° |
| 2026-04-22 01:18 | 48.29838 | -114.26647 | 2969 ft | 0 kts | 283° |
| 2026-04-22 01:18 | 48.29839 | -114.26653 | 2969 ft | 1 kts | 287° |
| 2026-04-22 01:19 | 48.29852 | -114.26687 | 2969 ft | 7 kts | 305° |
| 2026-04-22 01:19 | 48.29896 | -114.26753 | 2967 ft | 8 kts | 355° |
| 2026-04-22 01:19 | 48.29922 | -114.26723 | 2967 ft | 2 kts | 33° |
| 2026-04-22 01:19 | 48.30091 | -114.26546 | 2955 ft | 79 kts | 35° |
| 2026-04-22 01:20 | 48.30800 | -114.25807 | 3042 ft | 147 kts | 34° |
| 2026-04-22 01:20 | 48.31651 | -114.24918 | 3630 ft | 153 kts | 34° |
| 2026-04-22 01:20 | 48.32585 | -114.24019 | 4197 ft | 166 kts | 32° |
| 2026-04-22 01:20 | 48.33617 | -114.23130 | 4856 ft | 172 kts | 31° |
| 2026-04-22 01:21 | 48.34669 | -114.22290 | 5598 ft | 175 kts | 20° |
| 2026-04-22 01:21 | 48.35889 | -114.22230 | 6282 ft | 179 kts | 352° |
| 2026-04-22 01:21 | 48.37014 | -114.23056 | 6956 ft | 186 kts | 323° |
| 2026-04-22 01:21 | 48.37801 | -114.24601 | 7603 ft | 189 kts | 300° |
| 2026-04-22 01:22 | 48.38549 | -114.26330 | 8170 ft | 206 kts | 305° |
| 2026-04-22 01:22 | 48.39405 | -114.28112 | 8836 ft | 216 kts | 306° |
| 2026-04-22 01:22 | 48.40356 | -114.30049 | 9129 ft | 248 kts | 306° |
| 2026-04-22 01:22 | 48.41439 | -114.32264 | 9093 ft | 268 kts | 305° |
| 2026-04-22 01:23 | 48.42553 | -114.34567 | 9047 ft | 276 kts | 305° |
| 2026-04-22 01:23 | 48.43528 | -114.37110 | 8938 ft | 290 kts | 288° |
| 2026-04-22 01:23 | 48.43700 | -114.40195 | 8908 ft | 310 kts | 260° |
| 2026-04-22 01:23 | 48.42887 | -114.43011 | 10162 ft | 290 kts | 232° |
| 2026-04-22 01:24 | 48.41506 | -114.45226 | 10895 ft | 299 kts | 222° |
| 2026-04-22 01:24 | 48.39902 | -114.47452 | 11072 ft | 324 kts | 221° |
| 2026-04-22 01:24 | 48.38208 | -114.49823 | 11116 ft | 350 kts | 222° |
| 2026-04-22 01:24 | 48.36315 | -114.52105 | 11894 ft | 345 kts | 210° |
| 2026-04-22 01:25 | 48.34061 | -114.53331 | 12567 ft | 348 kts | 189° |
| 2026-04-22 01:25 | 48.31628 | -114.53486 | 13193 ft | 351 kts | 179° |
| 2026-04-22 01:25 | 48.29173 | -114.53369 | 13838 ft | 354 kts | 178° |
| 2026-04-22 01:25 | 48.26702 | -114.53367 | 14467 ft | 354 kts | 182° |
| 2026-04-22 01:26 | 48.24426 | -114.54058 | 14933 ft | 318 kts | 197° |
| 2026-04-22 01:26 | 48.22481 | -114.55491 | 14967 ft | 313 kts | 211° |
| 2026-04-22 01:26 | 48.20759 | -114.57704 | 15022 ft | 333 kts | 224° |
| 2026-04-22 01:26 | 48.19259 | -114.60359 | 14991 ft | 344 kts | 227° |
| 2026-04-22 01:27 | 48.17687 | -114.63172 | 14979 ft | 350 kts | 227° |
| 2026-04-22 01:27 | 48.16159 | -114.65851 | 14985 ft | 338 kts | 226° |
| 2026-04-22 01:27 | 48.14568 | -114.68601 | 14988 ft | 358 kts | 227° |
| 2026-04-22 01:27 | 48.12884 | -114.71371 | 14970 ft | 362 kts | 222° |
| 2026-04-22 01:28 | 48.11042 | -114.73959 | 15065 ft | 367 kts | 221° |
| 2026-04-22 01:28 | 48.09172 | -114.76582 | 15700 ft | 368 kts | 221° |
| 2026-04-22 01:28 | 48.07311 | -114.79220 | 16375 ft | 370 kts | 221° |
| 2026-04-22 01:28 | 48.05431 | -114.81877 | 17018 ft | 373 kts | 220° |
| 2026-04-22 01:29 | 48.03534 | -114.84541 | 17714 ft | 375 kts | 220° |
| 2026-04-22 01:29 | 48.01628 | -114.87216 | 18348 ft | 377 kts | 220° |
| 2026-04-22 01:29 | 47.99712 | -114.89909 | 19012 ft | 379 kts | 220° |
| 2026-04-22 01:29 | 47.97785 | -114.92614 | 19703 ft | 381 kts | 220° |
| 2026-04-22 01:30 | 47.95847 | -114.95329 | 20397 ft | 383 kts | 220° |
| 2026-04-22 01:30 | 47.93894 | -114.98060 | 21070 ft | 386 kts | 221° |
| 2026-04-22 01:30 | 47.91933 | -115.00803 | 21760 ft | 388 kts | 221° |
| 2026-04-22 01:30 | 47.89959 | -115.03560 | 22443 ft | 390 kts | 221° |
| 2026-04-22 01:31 | 47.87975 | -115.06328 | 23095 ft | 392 kts | 221° |
| 2026-04-22 01:31 | 47.85977 | -115.09112 | 23638 ft | 395 kts | 221° |
| 2026-04-22 01:31 | 47.83968 | -115.11910 | 24186 ft | 396 kts | 221° |
| 2026-04-22 01:31 | 47.81953 | -115.14712 | 24767 ft | 397 kts | 221° |
| 2026-04-22 01:32 | 47.79931 | -115.17519 | 25328 ft | 399 kts | 221° |
| 2026-04-22 01:32 | 47.77895 | -115.20343 | 25864 ft | 401 kts | 221° |
| 2026-04-22 01:32 | 47.75871 | -115.23147 | 26355 ft | 404 kts | 220° |
| 2026-04-22 01:32 | 47.73812 | -115.25999 | 26950 ft | 405 kts | 220° |
| 2026-04-22 01:33 | 47.71744 | -115.28859 | 27516 ft | 407 kts | 220° |
| 2026-04-22 01:33 | 47.69633 | -115.31771 | 28120 ft | 409 kts | 220° |
| 2026-04-22 01:33 | 47.67545 | -115.34651 | 28650 ft | 411 kts | 220° |
| 2026-04-22 01:33 | 47.65465 | -115.37518 | 29129 ft | 415 kts | 220° |
| 2026-04-22 01:34 | 47.63343 | -115.40441 | 29667 ft | 417 kts | 220° |
| 2026-04-22 01:34 | 47.61206 | -115.43377 | 30105 ft | 419 kts | 220° |
| 2026-04-22 01:34 | 47.59058 | -115.46326 | 30558 ft | 422 kts | 220° |
| 2026-04-22 01:34 | 47.56913 | -115.49269 | 31223 ft | 419 kts | 220° |
| 2026-04-22 01:35 | 47.54784 | -115.52187 | 31907 ft | 416 kts | 219° |
| 2026-04-22 01:35 | 47.52665 | -115.55085 | 32540 ft | 413 kts | 219° |
| 2026-04-22 01:35 | 47.50560 | -115.57961 | 33144 ft | 411 kts | 219° |
| 2026-04-22 01:35 | 47.48442 | -115.60782 | 33681 ft | 409 kts | 217° |
| 2026-04-22 01:36 | 47.46146 | -115.63239 | 34180 ft | 406 kts | 211° |
| 2026-04-22 01:36 | 47.43699 | -115.65277 | 34752 ft | 403 kts | 205° |
| 2026-04-22 01:36 | 47.41127 | -115.66882 | 35322 ft | 400 kts | 199° |
| 2026-04-22 01:36 | 47.38494 | -115.68181 | 35881 ft | 398 kts | 198° |
| 2026-04-22 01:37 | 47.36758 | -115.69046 | 36285 ft | 397 kts | 198° |
| 2026-04-22 01:37 | 47.34150 | -115.70364 | 36848 ft | 396 kts | 198° |
| 2026-04-22 01:37 | 47.31547 | -115.71665 | 37406 ft | 395 kts | 198° |
| 2026-04-22 01:37 | 47.28948 | -115.72949 | 37975 ft | 393 kts | 198° |
| 2026-04-22 01:38 | 47.26356 | -115.74230 | 38447 ft | 393 kts | 198° |
| 2026-04-22 01:38 | 47.23760 | -115.75522 | 38819 ft | 394 kts | 198° |
| 2026-04-22 01:38 | 47.21152 | -115.76816 | 39121 ft | 396 kts | 198° |
| 2026-04-22 01:38 | 47.18534 | -115.78110 | 39442 ft | 398 kts | 198° |
| 2026-04-22 01:39 | 47.15903 | -115.79409 | 39742 ft | 400 kts | 198° |
| 2026-04-22 01:39 | 47.13260 | -115.80716 | 40089 ft | 401 kts | 199° |
| 2026-04-22 01:39 | 47.10612 | -115.82024 | 40410 ft | 403 kts | 199° |
| 2026-04-22 01:39 | 47.07944 | -115.83338 | 40713 ft | 405 kts | 199° |
| 2026-04-22 01:40 | 47.05261 | -115.84658 | 41051 ft | 407 kts | 199° |
| 2026-04-22 01:40 | 47.02576 | -115.85979 | 41363 ft | 409 kts | 199° |
| 2026-04-22 01:40 | 46.99874 | -115.87307 | 41693 ft | 410 kts | 199° |
| 2026-04-22 01:40 | 46.97163 | -115.88637 | 42022 ft | 412 kts | 199° |
| 2026-04-22 01:41 | 46.94438 | -115.89973 | 42331 ft | 414 kts | 199° |
| 2026-04-22 01:41 | 46.91703 | -115.91312 | 42616 ft | 416 kts | 199° |
| 2026-04-22 01:41 | 46.86095 | -115.94055 | 42603 ft | 433 kts | 199° |
| 2026-04-22 01:42 | 46.80277 | -115.96892 | 42617 ft | 448 kts | 199° |
| 2026-04-22 01:42 | 46.74263 | -115.99820 | 42606 ft | 462 kts | 199° |
| 2026-04-22 01:43 | 46.68170 | -116.02778 | 42614 ft | 464 kts | 199° |
| 2026-04-22 01:43 | 46.62021 | -116.05755 | 42610 ft | 466 kts | 199° |
| 2026-04-22 01:44 | 46.55858 | -116.08733 | 42612 ft | 466 kts | 199° |
| 2026-04-22 01:44 | 46.49695 | -116.11704 | 42606 ft | 467 kts | 199° |
| 2026-04-22 01:45 | 46.43533 | -116.14667 | 42611 ft | 465 kts | 198° |
| 2026-04-22 01:45 | 46.37404 | -116.17608 | 42613 ft | 466 kts | 198° |
| 2026-04-22 01:46 | 46.31245 | -116.20556 | 42624 ft | 466 kts | 198° |
| 2026-04-22 01:46 | 46.25081 | -116.23498 | 42641 ft | 466 kts | 198° |
| 2026-04-22 01:47 | 46.18922 | -116.26433 | 42628 ft | 466 kts | 198° |
| 2026-04-22 01:47 | 46.12829 | -116.29328 | 42635 ft | 464 kts | 198° |
| 2026-04-22 01:48 | 46.06683 | -116.32242 | 42660 ft | 468 kts | 198° |
| 2026-04-22 01:48 | 46.00445 | -116.35193 | 42661 ft | 469 kts | 198° |
| 2026-04-22 01:49 | 45.94243 | -116.38119 | 42663 ft | 469 kts | 198° |
| 2026-04-22 01:49 | 45.88012 | -116.41052 | 42666 ft | 471 kts | 198° |
| 2026-04-22 01:50 | 45.81815 | -116.43963 | 42674 ft | 472 kts | 198° |
| 2026-04-22 01:50 | 45.75567 | -116.46890 | 42681 ft | 473 kts | 198° |
| 2026-04-22 01:51 | 45.69314 | -116.49814 | 42692 ft | 473 kts | 198° |
| 2026-04-22 01:51 | 45.63052 | -116.52733 | 42678 ft | 473 kts | 198° |
| 2026-04-22 01:52 | 45.56788 | -116.55647 | 42691 ft | 473 kts | 198° |
| 2026-04-22 01:52 | 45.50530 | -116.58553 | 42689 ft | 472 kts | 198° |
| 2026-04-22 01:53 | 45.44279 | -116.61446 | 42679 ft | 471 kts | 198° |
| 2026-04-22 01:53 | 45.38049 | -116.64326 | 42664 ft | 471 kts | 198° |
| 2026-04-22 01:54 | 45.31821 | -116.67196 | 42675 ft | 470 kts | 198° |
| 2026-04-22 01:54 | 45.25594 | -116.70059 | 42659 ft | 470 kts | 198° |
| 2026-04-22 01:55 | 45.19368 | -116.72916 | 42676 ft | 469 kts | 198° |
| 2026-04-22 01:55 | 45.13173 | -116.75752 | 42660 ft | 468 kts | 198° |
| 2026-04-22 01:56 | 45.06972 | -116.78583 | 42656 ft | 468 kts | 198° |
| 2026-04-22 01:56 | 45.00763 | -116.81413 | 42648 ft | 469 kts | 198° |
| 2026-04-22 01:57 | 44.94563 | -116.84231 | 42636 ft | 465 kts | 197° |
| 2026-04-22 01:57 | 44.88402 | -116.87027 | 42629 ft | 467 kts | 197° |
| 2026-04-22 01:58 | 44.82223 | -116.89822 | 42615 ft | 466 kts | 197° |
| 2026-04-22 01:58 | 44.76041 | -116.92615 | 42605 ft | 466 kts | 197° |
| 2026-04-22 01:59 | 44.69858 | -116.95399 | 42610 ft | 468 kts | 197° |
| 2026-04-22 01:59 | 44.63656 | -116.98187 | 42608 ft | 469 kts | 197° |
| 2026-04-22 02:00 | 44.57494 | -117.00951 | 42598 ft | 468 kts | 197° |
| 2026-04-22 02:00 | 44.51296 | -117.03724 | 42608 ft | 467 kts | 197° |
| 2026-04-22 02:01 | 44.45077 | -117.06503 | 42594 ft | 472 kts | 197° |
| 2026-04-22 02:01 | 44.38829 | -117.09285 | 42586 ft | 471 kts | 197° |
| 2026-04-22 02:02 | 44.32579 | -117.12064 | 42611 ft | 472 kts | 197° |
| 2026-04-22 02:02 | 44.26278 | -117.14859 | 42637 ft | 475 kts | 197° |
| 2026-04-22 02:03 | 44.19962 | -117.17654 | 42650 ft | 477 kts | 197° |
| 2026-04-22 02:03 | 44.13619 | -117.20454 | 42595 ft | 479 kts | 197° |
| 2026-04-22 02:04 | 44.04092 | -117.24648 | 42646 ft | 479 kts | 197° |
| 2026-04-22 02:05 | 43.97751 | -117.27432 | 42643 ft | 475 kts | 197° |
| 2026-04-22 02:05 | 43.91446 | -117.30195 | 42643 ft | 475 kts | 197° |
| 2026-04-22 02:06 | 43.85140 | -117.32951 | 42656 ft | 475 kts | 197° |
| 2026-04-22 02:06 | 43.78876 | -117.35683 | 42662 ft | 475 kts | 197° |
| 2026-04-22 02:07 | 43.72537 | -117.38441 | 42699 ft | 477 kts | 197° |
| 2026-04-22 02:07 | 43.66190 | -117.41197 | 42707 ft | 478 kts | 197° |
| 2026-04-22 02:08 | 43.59837 | -117.43949 | 42723 ft | 478 kts | 197° |
| 2026-04-22 02:08 | 43.53486 | -117.46695 | 42739 ft | 478 kts | 197° |
| 2026-04-22 02:09 | 43.47161 | -117.49423 | 42746 ft | 476 kts | 197° |
| 2026-04-22 02:09 | 43.40846 | -117.52141 | 42773 ft | 476 kts | 197° |
| 2026-04-22 02:10 | 43.34531 | -117.54852 | 42765 ft | 475 kts | 197° |
| 2026-04-22 02:10 | 43.28213 | -117.57560 | 42780 ft | 475 kts | 197° |
| 2026-04-22 02:11 | 43.21898 | -117.60260 | 42792 ft | 476 kts | 197° |
| 2026-04-22 02:11 | 43.15566 | -117.62961 | 42803 ft | 478 kts | 197° |
| 2026-04-22 02:12 | 43.09258 | -117.65647 | 42802 ft | 477 kts | 197° |
| 2026-04-22 02:12 | 43.02907 | -117.68345 | 42805 ft | 478 kts | 197° |
| 2026-04-22 02:13 | 42.96548 | -117.71040 | 42812 ft | 478 kts | 197° |
| 2026-04-22 02:13 | 42.90184 | -117.73732 | 42826 ft | 482 kts | 197° |
| 2026-04-22 02:14 | 42.83762 | -117.76443 | 42838 ft | 484 kts | 197° |
| 2026-04-22 02:14 | 42.77333 | -117.79149 | 42857 ft | 484 kts | 197° |
| 2026-04-22 02:15 | 42.70900 | -117.81853 | 42871 ft | 484 kts | 197° |
| 2026-04-22 02:15 | 42.64458 | -117.84554 | 42867 ft | 486 kts | 197° |
| 2026-04-22 02:16 | 42.58021 | -117.87436 | 42863 ft | 488 kts | 203° |
| 2026-04-22 02:16 | 42.51841 | -117.91267 | 42880 ft | 488 kts | 204° |
| 2026-04-22 02:17 | 42.45635 | -117.95042 | 42882 ft | 489 kts | 204° |
| 2026-04-22 02:17 | 42.39438 | -117.98850 | 42869 ft | 489 kts | 204° |
| 2026-04-22 02:18 | 42.33239 | -118.02627 | 42860 ft | 489 kts | 204° |
| 2026-04-22 02:18 | 42.27042 | -118.06406 | 42860 ft | 489 kts | 204° |
| 2026-04-22 02:19 | 42.20843 | -118.10172 | 42853 ft | 489 kts | 204° |
| 2026-04-22 02:19 | 42.14689 | -118.13904 | 42859 ft | 487 kts | 204° |
| 2026-04-22 02:20 | 42.08507 | -118.17648 | 42863 ft | 487 kts | 204° |
| 2026-04-22 02:20 | 42.02326 | -118.21379 | 42858 ft | 487 kts | 204° |
| 2026-04-22 02:21 | 41.96141 | -118.25108 | 42867 ft | 487 kts | 204° |
| 2026-04-22 02:21 | 41.89967 | -118.28818 | 42861 ft | 485 kts | 204° |
| 2026-04-22 02:22 | 41.83805 | -118.32519 | 42864 ft | 485 kts | 204° |
| 2026-04-22 02:22 | 41.77633 | -118.36213 | 42872 ft | 485 kts | 204° |
| 2026-04-22 02:23 | 41.71464 | -118.39900 | 42863 ft | 486 kts | 204° |
| 2026-04-22 02:23 | 41.65304 | -118.43573 | 42864 ft | 485 kts | 204° |
| 2026-04-22 02:24 | 41.60189 | -118.46617 | 42864 ft | 484 kts | 204° |
| 2026-04-22 02:24 | 41.54027 | -118.50277 | 42862 ft | 485 kts | 204° |
| 2026-04-22 02:25 | 41.47862 | -118.53932 | 42858 ft | 485 kts | 204° |
| 2026-04-22 02:25 | 41.41697 | -118.57578 | 42861 ft | 485 kts | 204° |
| 2026-04-22 02:26 | 41.35534 | -118.61216 | 42860 ft | 485 kts | 204° |
| 2026-04-22 02:26 | 41.29368 | -118.64849 | 42861 ft | 485 kts | 204° |
| 2026-04-22 02:27 | 41.23228 | -118.68458 | 42864 ft | 487 kts | 204° |
| 2026-04-22 02:27 | 41.17027 | -118.72097 | 42859 ft | 487 kts | 204° |
| 2026-04-22 02:28 | 41.10822 | -118.75728 | 42863 ft | 487 kts | 204° |
| 2026-04-22 02:28 | 41.04616 | -118.79354 | 42857 ft | 487 kts | 204° |
| 2026-04-22 02:29 | 40.98409 | -118.82972 | 42859 ft | 487 kts | 204° |
| 2026-04-22 02:29 | 40.92205 | -118.86581 | 42859 ft | 487 kts | 204° |
| 2026-04-22 02:30 | 40.85994 | -118.90188 | 42865 ft | 487 kts | 204° |
| 2026-04-22 02:30 | 40.79781 | -118.93787 | 42866 ft | 488 kts | 204° |
| 2026-04-22 02:31 | 40.73558 | -118.97387 | 42878 ft | 491 kts | 205° |
| 2026-04-22 02:31 | 40.67304 | -119.00994 | 42880 ft | 490 kts | 204° |
| 2026-04-22 02:32 | 40.61056 | -119.04593 | 42890 ft | 490 kts | 205° |
| 2026-04-22 02:32 | 40.54803 | -119.08185 | 42879 ft | 490 kts | 205° |
| 2026-04-22 02:33 | 40.48549 | -119.11772 | 42887 ft | 490 kts | 205° |
| 2026-04-22 02:33 | 40.42292 | -119.15353 | 42884 ft | 490 kts | 205° |
| 2026-04-22 02:34 | 40.36039 | -119.18925 | 42889 ft | 490 kts | 205° |
| 2026-04-22 02:34 | 40.29776 | -119.22495 | 42893 ft | 491 kts | 205° |
| 2026-04-22 02:35 | 40.23506 | -119.26061 | 42884 ft | 492 kts | 205° |
| 2026-04-22 02:35 | 40.17268 | -119.29602 | 42886 ft | 492 kts | 205° |
| 2026-04-22 02:36 | 40.10993 | -119.33157 | 42886 ft | 491 kts | 205° |
| 2026-04-22 02:36 | 40.04732 | -119.36697 | 42882 ft | 490 kts | 205° |
| 2026-04-22 02:37 | 39.98469 | -119.40232 | 42885 ft | 490 kts | 205° |
| 2026-04-22 02:37 | 39.92209 | -119.43757 | 42888 ft | 490 kts | 205° |
| 2026-04-22 02:38 | 39.85953 | -119.47271 | 42874 ft | 489 kts | 205° |
| 2026-04-22 02:38 | 39.79688 | -119.50789 | 42889 ft | 491 kts | 205° |
| 2026-04-22 02:39 | 39.73412 | -119.54299 | 42910 ft | 491 kts | 205° |
| 2026-04-22 02:39 | 39.67152 | -119.57797 | 42903 ft | 492 kts | 205° |
| 2026-04-22 02:40 | 39.60865 | -119.61303 | 42914 ft | 492 kts | 206° |
| 2026-04-22 02:40 | 39.54578 | -119.64801 | 42926 ft | 491 kts | 206° |
| 2026-04-22 02:41 | 39.48095 | -119.67713 | 42927 ft | 494 kts | 200° |
| 2026-04-22 02:41 | 39.41559 | -119.70452 | 42915 ft | 493 kts | 201° |
| 2026-04-22 02:42 | 39.35052 | -119.73172 | 42936 ft | 491 kts | 201° |
| 2026-04-22 02:42 | 39.28544 | -119.75881 | 42953 ft | 492 kts | 201° |
| 2026-04-22 02:43 | 39.22033 | -119.78593 | 42955 ft | 491 kts | 201° |
| 2026-04-22 02:43 | 39.15538 | -119.81286 | 42953 ft | 489 kts | 201° |
| 2026-04-22 02:44 | 39.09061 | -119.83974 | 42953 ft | 486 kts | 201° |
| 2026-04-22 02:44 | 39.02618 | -119.86637 | 42954 ft | 486 kts | 201° |
| 2026-04-22 02:45 | 38.96173 | -119.89298 | 42961 ft | 485 kts | 201° |
| 2026-04-22 02:45 | 38.89767 | -119.91938 | 42966 ft | 484 kts | 201° |
| 2026-04-22 02:46 | 38.83361 | -119.94573 | 42965 ft | 483 kts | 201° |
| 2026-04-22 02:46 | 38.76999 | -119.97183 | 42968 ft | 483 kts | 201° |
| 2026-04-22 02:47 | 38.70584 | -119.99812 | 42974 ft | 484 kts | 201° |
| 2026-04-22 02:47 | 38.64170 | -120.02434 | 42974 ft | 484 kts | 201° |
| 2026-04-22 02:48 | 38.57752 | -120.05056 | 42993 ft | 484 kts | 201° |
| 2026-04-22 02:48 | 38.51339 | -120.07667 | 43016 ft | 482 kts | 201° |
| 2026-04-22 02:49 | 38.44963 | -120.10261 | 43029 ft | 484 kts | 201° |
| 2026-04-22 02:49 | 38.38547 | -120.12864 | 42873 ft | 478 kts | 201° |
| 2026-04-22 02:49 | 38.35425 | -120.14123 | 42240 ft | 464 kts | 201° |
| 2026-04-22 02:50 | 38.32344 | -120.15369 | 41662 ft | 451 kts | 201° |
| 2026-04-22 02:50 | 38.29436 | -120.16549 | 41091 ft | 440 kts | 202° |
| 2026-04-22 02:50 | 38.26544 | -120.17722 | 40553 ft | 434 kts | 202° |
| 2026-04-22 02:50 | 38.23664 | -120.18886 | 39993 ft | 435 kts | 202° |
| 2026-04-22 02:51 | 38.20778 | -120.20051 | 39422 ft | 436 kts | 202° |
| 2026-04-22 02:51 | 38.17878 | -120.21220 | 38843 ft | 437 kts | 202° |
| 2026-04-22 02:51 | 38.14982 | -120.22386 | 38216 ft | 437 kts | 202° |
| 2026-04-22 02:51 | 38.12080 | -120.23555 | 37636 ft | 437 kts | 203° |
| 2026-04-22 02:52 | 38.09176 | -120.24724 | 37054 ft | 438 kts | 203° |
| 2026-04-22 02:52 | 38.06273 | -120.25890 | 36452 ft | 438 kts | 203° |
| 2026-04-22 02:52 | 38.03383 | -120.27048 | 35881 ft | 434 kts | 204° |
| 2026-04-22 02:52 | 38.00506 | -120.28203 | 35305 ft | 434 kts | 204° |
| 2026-04-22 02:53 | 37.97628 | -120.29360 | 34726 ft | 434 kts | 204° |
| 2026-04-22 02:53 | 37.94751 | -120.30512 | 34158 ft | 434 kts | 205° |
| 2026-04-22 02:53 | 37.91875 | -120.31662 | 33728 ft | 435 kts | 205° |
| 2026-04-22 02:53 | 37.88993 | -120.32815 | 33147 ft | 434 kts | 205° |
| 2026-04-22 02:54 | 37.86107 | -120.33969 | 32578 ft | 435 kts | 205° |
| 2026-04-22 02:54 | 37.83223 | -120.35120 | 31940 ft | 435 kts | 205° |
| 2026-04-22 02:54 | 37.80356 | -120.36260 | 31413 ft | 431 kts | 207° |
| 2026-04-22 02:54 | 37.77544 | -120.37533 | 30817 ft | 425 kts | 213° |
| 2026-04-22 02:55 | 37.75024 | -120.39377 | 30275 ft | 410 kts | 223° |
| 2026-04-22 02:55 | 37.72890 | -120.41645 | 29693 ft | 394 kts | 232° |
| 2026-04-22 02:55 | 37.71138 | -120.44253 | 29179 ft | 385 kts | 240° |
| 2026-04-22 02:55 | 37.69795 | -120.47085 | 28681 ft | 378 kts | 248° |
| 2026-04-22 02:56 | 37.68829 | -120.50150 | 28183 ft | 373 kts | 255° |
| 2026-04-22 02:56 | 37.68264 | -120.53328 | 27695 ft | 371 kts | 262° |
| 2026-04-22 02:56 | 37.67865 | -120.56544 | 27211 ft | 371 kts | 262° |
| 2026-04-22 02:56 | 37.67444 | -120.59753 | 26720 ft | 370 kts | 261° |
| 2026-04-22 02:57 | 37.67022 | -120.62957 | 26235 ft | 370 kts | 261° |
| 2026-04-22 02:57 | 37.66611 | -120.66158 | 25749 ft | 369 kts | 261° |
| 2026-04-22 02:57 | 37.66201 | -120.69358 | 25263 ft | 369 kts | 261° |
| 2026-04-22 02:57 | 37.65785 | -120.72555 | 24778 ft | 369 kts | 261° |
| 2026-04-22 02:58 | 37.65368 | -120.75745 | 24300 ft | 369 kts | 261° |
| 2026-04-22 02:58 | 37.64950 | -120.78944 | 23814 ft | 369 kts | 261° |
| 2026-04-22 02:58 | 37.64535 | -120.82135 | 23282 ft | 368 kts | 260° |
| 2026-04-22 02:58 | 37.64117 | -120.85322 | 22796 ft | 368 kts | 260° |
| 2026-04-22 02:59 | 37.63698 | -120.88506 | 22311 ft | 367 kts | 260° |
| 2026-04-22 02:59 | 37.63281 | -120.91684 | 21825 ft | 367 kts | 260° |
| 2026-04-22 02:59 | 37.62862 | -120.94858 | 21340 ft | 367 kts | 260° |
| 2026-04-22 02:59 | 37.62507 | -120.98031 | 20856 ft | 360 kts | 262° |
| 2026-04-22 03:00 | 37.62155 | -121.01162 | 20367 ft | 357 kts | 261° |
| 2026-04-22 03:00 | 37.61785 | -121.04229 | 19926 ft | 360 kts | 261° |
| 2026-04-22 03:00 | 37.61426 | -121.07376 | 19443 ft | 363 kts | 261° |
| 2026-04-22 03:00 | 37.61082 | -121.10527 | 18966 ft | 363 kts | 261° |
| 2026-04-22 03:01 | 37.60727 | -121.13685 | 18489 ft | 364 kts | 260° |
| 2026-04-22 03:01 | 37.60360 | -121.16865 | 17975 ft | 368 kts | 259° |
| 2026-04-22 03:01 | 37.59998 | -121.20040 | 17489 ft | 364 kts | 259° |
| 2026-04-22 03:01 | 37.59641 | -121.23199 | 17014 ft | 362 kts | 259° |
| 2026-04-22 03:02 | 37.59286 | -121.26314 | 16539 ft | 354 kts | 260° |
| 2026-04-22 03:02 | 37.58932 | -121.29388 | 16072 ft | 353 kts | 260° |
| 2026-04-22 03:02 | 37.58580 | -121.32444 | 15608 ft | 351 kts | 260° |
| 2026-04-22 03:02 | 37.58229 | -121.35483 | 15147 ft | 350 kts | 260° |
| 2026-04-22 03:03 | 37.57879 | -121.38508 | 14688 ft | 348 kts | 260° |
| 2026-04-22 03:03 | 37.57531 | -121.41520 | 14232 ft | 346 kts | 260° |
| 2026-04-22 03:03 | 37.57183 | -121.44513 | 13763 ft | 345 kts | 260° |
| 2026-04-22 03:03 | 37.56840 | -121.47452 | 13276 ft | 342 kts | 259° |
| 2026-04-22 03:04 | 37.56496 | -121.50405 | 12764 ft | 340 kts | 260° |
| 2026-04-22 03:04 | 37.56153 | -121.53343 | 12317 ft | 336 kts | 260° |
| 2026-04-22 03:04 | 37.55815 | -121.56225 | 11876 ft | 330 kts | 260° |
| 2026-04-22 03:04 | 37.55479 | -121.59091 | 11432 ft | 327 kts | 261° |
| 2026-04-22 03:05 | 37.55143 | -121.61917 | 11009 ft | 315 kts | 260° |
| 2026-04-22 03:05 | 37.54625 | -121.64474 | 10591 ft | 289 kts | 252° |
| 2026-04-22 03:05 | 37.54043 | -121.66815 | 10215 ft | 274 kts | 252° |
| 2026-04-22 03:05 | 37.53493 | -121.69090 | 9860 ft | 269 kts | 253° |
| 2026-04-22 03:06 | 37.52967 | -121.71325 | 9492 ft | 265 kts | 253° |
| 2026-04-22 03:06 | 37.52443 | -121.73528 | 9155 ft | 260 kts | 253° |
| 2026-04-22 03:06 | 37.51919 | -121.75713 | 8808 ft | 260 kts | 253° |
| 2026-04-22 03:06 | 37.51396 | -121.77897 | 8471 ft | 262 kts | 253° |
| 2026-04-22 03:07 | 37.50874 | -121.80076 | 8132 ft | 255 kts | 253° |
| 2026-04-22 03:07 | 37.50356 | -121.82239 | 7790 ft | 259 kts | 253° |
| 2026-04-22 03:07 | 37.49837 | -121.84400 | 7444 ft | 255 kts | 253° |
| 2026-04-22 03:07 | 37.49326 | -121.86534 | 7117 ft | 256 kts | 254° |
| 2026-04-22 03:08 | 37.49143 | -121.88743 | 6884 ft | 251 kts | 274° |
| 2026-04-22 03:08 | 37.49309 | -121.90965 | 7011 ft | 255 kts | 273° |
| 2026-04-22 03:08 | 37.49418 | -121.93175 | 7008 ft | 243 kts | 272° |
| 2026-04-22 03:08 | 37.49524 | -121.95243 | 7009 ft | 238 kts | 272° |
| 2026-04-22 03:09 | 37.49647 | -121.97321 | 7010 ft | 238 kts | 273° |
| 2026-04-22 03:09 | 37.49770 | -121.99385 | 7010 ft | 237 kts | 273° |
| 2026-04-22 03:09 | 37.49889 | -122.01468 | 7008 ft | 237 kts | 272° |
| 2026-04-22 03:09 | 37.50006 | -122.03527 | 6996 ft | 235 kts | 272° |
| 2026-04-22 03:10 | 37.50122 | -122.05560 | 6918 ft | 219 kts | 272° |
| 2026-04-22 03:10 | 37.50228 | -122.07403 | 5686 ft | 217 kts | 272° |
| 2026-04-22 03:10 | 37.50366 | -122.09324 | 4005 ft | 224 kts | 279° |
| 2026-04-22 03:10 | 37.50981 | -122.11093 | 3103 ft | 223 kts | 297° |
| 2026-04-22 03:11 | 37.51754 | -122.12817 | 3008 ft | 224 kts | 296° |
| 2026-04-22 03:11 | 37.52494 | -122.14561 | 3006 ft | 224 kts | 295° |
| 2026-04-22 03:11 | 37.53222 | -122.16295 | 3013 ft | 222 kts | 295° |
| 2026-04-22 03:11 | 37.53920 | -122.17952 | 3009 ft | 214 kts | 295° |
| 2026-04-22 03:12 | 37.54611 | -122.19599 | 2917 ft | 213 kts | 295° |
| 2026-04-22 03:12 | 37.55923 | -122.22721 | 2371 ft | 186 kts | 295° |
| 2026-04-22 03:12 | 37.56502 | -122.24118 | 2116 ft | 176 kts | 294° |
| 2026-04-22 03:13 | 37.57067 | -122.25465 | 1884 ft | 172 kts | 294° |
| 2026-04-22 03:13 | 37.57432 | -122.26332 | 1728 ft | 166 kts | 294° |
| 2026-04-22 03:13 | 37.58116 | -122.27969 | 1440 ft | 150 kts | 294° |
| 2026-04-22 03:13 | 37.58431 | -122.28722 | 1301 ft | 143 kts | 294° |
| 2026-04-22 03:14 | 37.59012 | -122.30102 | 1041 ft | 122 kts | 293° |
| 2026-04-22 03:14 | 37.59394 | -122.31024 | 871 ft | 117 kts | 294° |
| 2026-04-22 03:14 | 37.59770 | -122.31915 | 729 ft | 114 kts | 295° |
| 2026-04-22 03:14 | 37.60141 | -122.32784 | 586 ft | 111 kts | 292° |
| 2026-04-22 03:15 | 37.60373 | -122.33367 | 468 ft | 110 kts | 292° |
| 2026-04-22 03:15 | 37.60733 | -122.34237 | 321 ft | 112 kts | 293° |
| 2026-04-22 03:15 | 37.61095 | -122.35102 | 198 ft | 112 kts | 293° |
| 2026-04-22 03:15 | 37.61462 | -122.35978 | 55 ft | 113 kts | 294° |
| 2026-04-22 03:16 | 37.61797 | -122.36787 | 19 ft | 87 kts | 297° |
| 2026-04-22 03:16 | 37.62019 | -122.37304 | 20 ft | 59 kts | 298° |
| 2026-04-22 03:16 | 37.62197 | -122.37730 | 19 ft | 52 kts | 298° |
| 2026-04-22 03:16 | 37.62351 | -122.38094 | 19 ft | 32 kts | 297° |
| 2026-04-22 03:17 | 37.62444 | -122.38155 | 19 ft | 15 kts | 29° |
| 2026-04-22 03:17 | 37.62517 | -122.38134 | 21 ft | 10 kts | 331° |
| 2026-04-22 03:17 | 37.62552 | -122.38206 | 19 ft | 10 kts | 297° |
| 2026-04-22 03:17 | 37.62589 | -122.38290 | 21 ft | 13 kts | 299° |
| 2026-04-22 03:18 | 37.62631 | -122.38391 | 21 ft | 13 kts | 297° |
| 2026-04-22 03:18 | 37.62672 | -122.38491 | 19 ft | 13 kts | 297° |
| 2026-04-22 03:18 | 37.62719 | -122.38528 | 21 ft | 7 kts | 19° |
| 2026-04-22 03:18 | 37.62763 | -122.38494 | 21 ft | 8 kts | 39° |
| 2026-04-22 03:19 | 37.62781 | -122.38468 | 19 ft | 0 kts | 59° |